Time;durP1;ratioP1;P1;durP2;ratioP2;P2;SDS_P1;SDS_P2;PMS_P1;PMS_P2;Temp;Humidity;BMP_temperature;BMP_pressure;BME280_temperature;BME280_humidity;BME280_pressure;Samples;Min_cycle;Max_cycle;Signal;HPM_P1;HPM_P2
2022/08/05 00:01:43;;;;;;;1.50;0.60;;;;;;;29.66;38.75;98975.44;5091416;28;20040;-58
2022/08/05 00:04:08;;;;;;;3.25;0.60;;;;;;;29.64;38.77;98972.25;5091435;28;20092;-58
2022/08/05 00:06:34;;;;;;;0.70;0.55;;;;;;;29.65;38.45;98976.66;5091590;28;20075;-59
2022/08/05 00:09:00;;;;;;;0.85;0.60;;;;;;;29.66;38.60;98980.28;5091575;28;20044;-58
2022/08/05 00:11:27;;;;;;;1.50;0.50;;;;;;;29.66;38.60;98980.28;5091441;28;20055;-58
2022/08/05 00:13:52;;;;;;;0.90;0.57;;;;;;;29.65;38.46;98976.66;5091410;28;20047;-59
2022/08/05 00:16:18;;;;;;;0.40;0.40;;;;;;;29.65;38.68;98976.66;5091477;28;20040;-58
2022/08/05 00:18:47;;;;;;;0.70;0.52;;;;;;;29.66;38.51;98978.25;5091221;28;20154;-59
2022/08/05 00:21:13;;;;;;;0.75;0.50;;;;;;;29.64;38.85;98977.88;5091061;28;20048;-59
2022/08/05 00:23:39;;;;;;;0.60;0.50;;;;;;;29.67;38.68;98987.50;5090977;28;20048;-58
2022/08/05 00:26:06;;;;;;;0.90;0.60;;;;;;;29.64;38.90;98972.25;5091030;28;20048;-58
2022/08/05 00:28:31;;;;;;;0.95;0.60;;;;;;;29.67;38.46;98977.00;5088851;28;20052;-58
2022/08/05 00:30:57;;;;;;;0.68;0.50;;;;;;;29.63;38.73;98967.84;5090929;28;20044;-58
2022/08/05 00:33:22;;;;;;;0.75;0.43;;;;;;;29.66;38.78;98977.47;5091082;28;20066;-59
2022/08/05 00:35:47;;;;;;;0.82;0.60;;;;;;;29.66;38.50;98975.44;5090900;28;20044;-59
2022/08/05 00:38:13;;;;;;;0.50;0.50;;;;;;;29.67;38.50;98976.22;5090456;28;20098;-59
2022/08/05 00:40:47;;;;;;;0.60;0.60;;;;;;;29.66;38.65;98972.59;5090850;28;20047;-58
2022/08/05 00:43:12;;;;;;;0.93;0.60;;;;;;;29.68;38.74;98977.78;5090824;28;20507;-58
2022/08/05 00:45:38;;;;;;;1.48;0.50;;;;;;;29.64;38.81;98966.59;5090843;28;20097;-59
2022/08/05 00:48:04;;;;;;;0.85;0.60;;;;;;;29.65;38.71;98973.84;5090936;28;20040;-58
2022/08/05 00:50:29;;;;;;;0.85;0.60;;;;;;;29.68;38.82;98972.16;5090574;28;20044;-58
2022/08/05 00:52:54;;;;;;;0.93;0.60;;;;;;;29.66;38.53;98969.78;5090698;28;20036;-59
2022/08/05 00:55:20;;;;;;;1.00;0.60;;;;;;;29.68;38.64;98967.31;5090642;28;20441;-58
2022/08/05 00:57:45;;;;;;;0.68;0.60;;;;;;;29.64;38.82;98958.16;5090680;28;20044;-58
2022/08/05 01:00:11;;;;;;;0.73;0.60;;;;;;;29.66;38.94;98960.53;5090503;28;20071;-57
2022/08/05 01:02:40;;;;;;;0.55;0.40;;;;;;;29.67;38.76;98962.13;5090295;28;20089;-59
2022/08/05 01:05:05;;;;;;;1.42;0.75;;;;;;;29.68;38.61;98966.53;5090427;28;20048;-57
2022/08/05 01:07:31;;;;;;;0.95;0.50;;;;;;;29.66;38.67;98963.38;5090329;28;20036;-58
2022/08/05 01:09:57;;;;;;;0.82;0.60;;;;;;;29.68;38.55;98960.88;5090485;28;20510;-59
2022/08/05 01:12:24;;;;;;;0.75;0.60;;;;;;;29.67;39.01;98959.31;5090487;28;20063;-57
2022/08/05 01:15:03;;;;;;;0.98;0.60;;;;;;;29.67;38.63;98964.94;5090488;28;20098;-57
2022/08/05 01:17:32;;;;;;;0.65;0.40;;;;;;;29.68;38.76;98961.66;5090351;28;20064;-58
2022/08/05 01:20:15;;;;;;;1.17;0.70;;;;;;;29.67;39.08;98962.13;5090323;28;20052;-58
2022/08/05 01:23:00;;;;;;;1.15;0.70;;;;;;;29.67;38.88;98954.44;5090348;28;20127;-57
2022/08/05 01:25:45;;;;;;;1.02;0.68;;;;;;;29.63;38.67;98948.13;5090289;28;20102;-59
2022/08/05 01:28:28;;;;;;;0.73;0.52;;;;;;;29.67;39.00;98956.47;5090198;28;20082;-59
2022/08/05 01:30:58;;;;;;;1.00;0.75;;;;;;;29.67;38.78;98951.63;5090274;28;20106;-59
2022/08/05 01:33:28;;;;;;;1.10;0.68;;;;;;;29.67;39.03;98954.44;5089797;28;20048;-59
2022/08/05 01:35:57;;;;;;;0.88;0.68;;;;;;;29.67;38.91;98956.47;5090221;28;20044;-57
2022/08/05 01:38:26;;;;;;;0.63;0.57;;;;;;;29.67;38.88;98948.03;5090150;28;20075;-58
2022/08/05 01:40:53;;;;;;;0.95;0.65;;;;;;;29.68;38.67;98950.38;5089922;28;20114;-58
2022/08/05 01:43:20;;;;;;;0.73;0.60;;;;;;;29.68;38.67;98955.25;5071545;28;20393;-58
2022/08/05 01:45:46;;;;;;;1.00;0.68;;;;;;;29.67;38.78;98956.47;5089937;28;20496;-58
2022/08/05 01:48:13;;;;;;;0.63;0.50;;;;;;;29.66;39.13;98950.06;5089267;28;20036;-58
2022/08/05 01:50:39;;;;;;;0.95;0.55;;;;;;;29.69;38.94;98962.47;5089947;28;20052;-58
2022/08/05 01:53:13;;;;;;;0.98;0.60;;;;;;;29.68;38.80;98960.88;5089962;28;20044;-59
2022/08/05 01:55:43;;;;;;;0.93;0.57;;;;;;;29.67;38.92;98968.53;5089958;28;20154;-59
2022/08/05 01:58:12;;;;;;;1.92;0.60;;;;;;;29.69;39.08;98968.88;5090006;28;20048;-58
2022/08/05 02:00:41;;;;;;;0.68;0.50;;;;;;;29.67;38.98;98957.28;5089564;28;20054;-58
2022/08/05 02:03:12;;;;;;;0.70;0.55;;;;;;;29.69;38.91;98965.28;5089836;28;20040;-59
2022/08/05 02:05:39;;;;;;;0.77;0.60;;;;;;;29.68;39.05;98960.88;5089507;28;20123;-58
2022/08/05 02:08:05;;;;;;;0.88;0.60;;;;;;;29.69;38.99;98968.09;5089543;28;20599;-59
2022/08/05 02:10:39;;;;;;;1.00;0.70;;;;;;;29.67;39.20;98962.91;5089406;28;20119;-59
2022/08/05 02:13:12;;;;;;;1.52;0.65;;;;;;;29.68;38.90;98966.53;5089588;28;20432;-59
2022/08/05 02:15:46;;;;;;;0.73;0.60;;;;;;;29.67;38.78;98965.72;5089471;28;20080;-58
2022/08/05 02:18:25;;;;;;;0.40;0.40;;;;;;;29.67;38.98;98962.13;5089399;28;20051;-57
2022/08/05 02:20:58;;;;;;;0.63;0.50;;;;;;;29.68;38.81;98961.66;5089336;28;20055;-59
2022/08/05 02:23:30;;;;;;;0.90;0.60;;;;;;;29.67;38.88;98965.72;5089111;28;20044;-57
2022/08/05 02:25:58;;;;;;;0.90;0.60;;;;;;;29.69;39.07;98968.09;5089278;28;20059;-58
2022/08/05 02:28:28;;;;;;;0.80;0.70;;;;;;;29.68;38.88;98967.31;5089379;28;20051;-59
2022/08/05 02:30:57;;;;;;;0.63;0.52;;;;;;;29.66;39.15;98974.63;5089361;28;20610;-59
2022/08/05 02:33:24;;;;;;;1.17;0.88;;;;;;;29.69;38.94;98968.88;5089282;28;20487;-58
2022/08/05 02:35:54;;;;;;;0.93;0.60;;;;;;;29.68;38.92;98960.88;5089047;28;20488;-58
2022/08/05 02:38:20;;;;;;;1.30;0.70;;;;;;;29.67;38.95;98968.53;5089048;28;20050;-59
2022/08/05 02:40:45;;;;;;;0.98;0.60;;;;;;;29.69;39.02;98970.91;5089133;28;20070;-58
2022/08/05 02:43:13;;;;;;;0.85;0.60;;;;;;;29.69;38.94;98971.69;5089206;28;20494;-58
2022/08/05 02:45:42;;;;;;;1.13;0.73;;;;;;;29.66;39.00;98952.09;5087410;28;20052;-58
2022/08/05 02:48:09;;;;;;;1.35;0.60;;;;;;;29.69;38.94;98968.09;5088964;28;20544;-59
2022/08/05 02:50:35;;;;;;;0.85;0.60;;;;;;;29.68;38.87;98960.88;5089176;28;20051;-59
2022/08/05 02:53:01;;;;;;;0.52;0.50;;;;;;;29.69;39.14;98965.28;5089204;28;20047;-59
2022/08/05 02:55:29;;;;;;;1.48;0.65;;;;;;;29.66;38.74;98957.72;5088812;28;20431;-58
2022/08/05 02:57:57;;;;;;;0.80;0.60;;;;;;;29.68;39.11;98966.53;5088860;28;20131;-58
2022/08/05 03:00:22;;;;;;;2.78;0.63;;;;;;;29.70;39.19;98964.03;5090412;28;20419;-58
2022/08/05 03:02:49;;;;;;;0.73;0.60;;;;;;;29.68;39.21;98952.44;5092483;28;20040;-59
2022/08/05 03:05:15;;;;;;;0.82;0.50;;;;;;;29.68;39.21;98961.66;5092598;28;20044;-59
2022/08/05 03:07:43;;;;;;;0.70;0.60;;;;;;;29.69;39.13;98954.00;5092520;28;20487;-58
2022/08/05 03:10:09;;;;;;;0.88;0.70;;;;;;;29.69;38.84;98951.97;5092281;28;20039;-58
2022/08/05 03:12:36;;;;;;;0.70;0.60;;;;;;;29.69;38.88;98946.34;5092175;28;20048;-57
2022/08/05 03:15:04;;;;;;;0.95;0.70;;;;;;;29.69;39.08;98951.19;5074035;28;20381;-59
2022/08/05 03:17:29;;;;;;;0.90;0.60;;;;;;;29.69;39.03;98951.97;5092304;28;20058;-58
2022/08/05 03:19:55;;;;;;;1.23;0.70;;;;;;;29.69;39.05;98946.34;5092048;28;20048;-59
2022/08/05 03:22:20;;;;;;;0.75;0.60;;;;;;;29.70;38.90;98952.75;5092070;28;20048;-59
2022/08/05 03:24:47;;;;;;;0.60;0.50;;;;;;;29.69;38.91;98956.81;5092171;28;20456;-59
2022/08/05 03:27:13;;;;;;;1.25;0.70;;;;;;;29.68;38.87;98953.22;5092103;28;20036;-58
2022/08/05 03:29:39;;;;;;;1.10;0.60;;;;;;;29.70;39.15;98952.75;5091992;28;20169;-58
2022/08/05 03:32:07;;;;;;;0.85;0.70;;;;;;;29.71;39.13;98951.50;5091931;28;20591;-59
2022/08/05 03:34:33;;;;;;;1.40;0.70;;;;;;;29.68;39.13;98943.97;5092179;28;20130;-59
2022/08/05 03:36:59;;;;;;;0.60;0.50;;;;;;;29.67;38.82;98942.38;5091927;28;20052;-59
2022/08/05 03:39:25;;;;;;;0.80;0.60;;;;;;;29.70;39.19;98950.72;5091752;28;20044;-59
2022/08/05 03:41:50;;;;;;;0.77;0.60;;;;;;;29.70;38.90;98944.31;5091715;28;20047;-59
2022/08/05 03:44:15;;;;;;;0.63;0.60;;;;;;;29.70;39.16;98945.09;5091863;28;20048;-58
2022/08/05 03:46:41;;;;;;;0.88;0.60;;;;;;;29.69;38.98;98951.97;5091892;28;20549;-58
2022/08/05 03:49:06;;;;;;;1.20;0.70;;;;;;;29.71;39.27;98957.16;5091861;28;20043;-59
2022/08/05 03:51:37;;;;;;;1.02;0.70;;;;;;;29.70;39.21;98950.72;5091670;28;20048;-59
2022/08/05 03:54:13;;;;;;;0.85;0.60;;;;;;;29.70;38.90;98956.38;5091701;28;20428;-59
2022/08/05 03:56:41;;;;;;;0.80;0.63;;;;;;;29.70;39.10;98958.41;5091650;28;20052;-59
2022/08/05 03:59:31;;;;;;;0.77;0.60;;;;;;;29.69;39.11;98951.19;5091368;28;20048;-58
2022/08/05 04:01:58;;;;;;;0.60;0.47;;;;;;;29.69;39.02;98957.59;5091489;28;20052;-57
2022/08/05 04:04:25;;;;;;;0.90;0.60;;;;;;;29.68;39.21;98956.03;5091312;28;20036;-58
2022/08/05 04:06:52;;;;;;;0.85;0.52;;;;;;;29.69;38.98;98970.91;5091420;28;20048;-58
2022/08/05 04:09:18;;;;;;;0.98;0.60;;;;;;;29.70;39.27;98964.03;5091430;28;20457;-58
2022/08/05 04:11:44;;;;;;;0.70;0.50;;;;;;;29.69;39.48;98968.88;5090774;28;20044;-59
2022/08/05 04:14:09;;;;;;;1.13;0.73;;;;;;;29.70;38.97;98964.03;5091491;28;20138;-59
2022/08/05 04:16:37;;;;;;;1.17;0.63;;;;;;;29.67;38.95;98962.13;5091115;28;20048;-59
2022/08/05 04:19:03;;;;;;;1.08;0.73;;;;;;;29.70;38.95;98973.28;5091170;28;20396;-59
2022/08/05 04:21:29;;;;;;;0.63;0.50;;;;;;;29.69;39.38;98960.44;5091157;28;20032;-59
2022/08/05 04:23:55;;;;;;;0.93;0.60;;;;;;;29.70;39.18;98969.66;5091220;28;20073;-58
2022/08/05 04:26:20;;;;;;;1.15;0.70;;;;;;;29.71;39.39;98969.22;5091205;28;20548;-59
2022/08/05 04:28:46;;;;;;;0.98;0.70;;;;;;;29.70;39.27;98975.31;5091190;28;20036;-59
2022/08/05 04:31:11;;;;;;;0.68;0.65;;;;;;;29.69;39.14;98973.72;5090953;28;20112;-59
2022/08/05 04:33:36;;;;;;;0.70;0.60;;;;;;;29.70;38.90;98981.75;5090904;28;20058;-59
2022/08/05 04:36:02;;;;;;;1.42;0.60;;;;;;;29.72;39.33;98978.47;5090721;28;20051;-59
2022/08/05 04:38:28;;;;;;;1.00;0.70;;;;;;;29.70;39.12;98976.09;5090859;28;20071;-58
2022/08/05 04:40:53;;;;;;;0.95;0.70;;;;;;;29.69;39.37;98976.56;5090925;28;20377;-58
2022/08/05 04:43:18;;;;;;;1.60;0.70;;;;;;;29.67;39.44;98974.19;5090681;28;20043;-59
2022/08/05 04:45:44;;;;;;;0.70;0.60;;;;;;;29.70;39.06;98978.91;5090913;28;20040;-58
2022/08/05 04:48:12;;;;;;;0.65;0.50;;;;;;;29.70;39.09;98984.56;5090713;28;20044;-57
2022/08/05 04:50:45;;;;;;;1.05;0.73;;;;;;;29.70;39.43;98978.13;5090864;28;20070;-58
2022/08/05 04:53:12;;;;;;;0.85;0.68;;;;;;;29.71;39.35;98980.50;5090736;28;20093;-58
2022/08/05 04:55:38;;;;;;;0.73;0.60;;;;;;;29.70;39.32;98987.38;5090861;28;20496;-58
2022/08/05 04:58:05;;;;;;;0.80;0.70;;;;;;;29.69;39.25;98982.97;5090792;28;20574;-59
2022/08/05 05:00:32;;;;;;;0.60;0.50;;;;;;;29.69;39.21;98982.19;5090276;28;20101;-59
2022/08/05 05:02:58;;;;;;;1.02;0.70;;;;;;;29.66;39.15;98985.91;5090490;28;20047;-59
2022/08/05 05:05:23;;;;;;;0.98;0.70;;;;;;;29.70;39.08;98986.59;5090671;28;20039;-59
2022/08/05 05:07:49;;;;;;;1.30;0.63;;;;;;;29.70;39.09;98987.38;5090409;28;20157;-58
2022/08/05 05:10:14;;;;;;;1.00;0.70;;;;;;;29.71;39.48;98982.53;5090532;28;20059;-58
2022/08/05 05:12:39;;;;;;;0.77;0.60;;;;;;;29.70;39.16;98995.84;5090558;28;20051;-58
2022/08/05 05:15:05;;;;;;;0.80;0.60;;;;;;;29.70;39.18;99000.69;5090397;28;20040;-59
2022/08/05 05:17:38;;;;;;;0.90;0.70;;;;;;;29.70;39.27;99000.69;5090352;28;20496;-57
2022/08/05 05:20:05;;;;;;;0.88;0.70;;;;;;;29.70;39.36;99004.28;5090255;28;20600;-58
2022/08/05 05:22:31;;;;;;;0.82;0.60;;;;;;;29.70;39.50;99000.69;5089967;28;20044;-58
2022/08/05 05:24:56;;;;;;;0.88;0.60;;;;;;;29.70;39.42;98995.03;5089167;28;20131;-58
2022/08/05 05:27:21;;;;;;;0.88;0.60;;;;;;;29.72;39.28;99001.00;5090188;28;20058;-58
2022/08/05 05:29:47;;;;;;;1.17;0.70;;;;;;;29.71;39.43;99003.03;5089976;28;20403;-58
2022/08/05 05:32:12;;;;;;;1.10;0.60;;;;;;;29.67;39.37;98993.91;5090257;28;20085;-57
2022/08/05 05:34:38;;;;;;;0.65;0.55;;;;;;;29.70;39.36;99007.09;5089989;28;20071;-58
2022/08/05 05:37:03;;;;;;;0.70;0.60;;;;;;;29.70;39.30;99006.31;5090044;28;20046;-58
2022/08/05 05:39:28;;;;;;;0.80;0.60;;;;;;;29.71;39.26;99010.72;5089898;28;20097;-58
2022/08/05 05:41:54;;;;;;;0.90;0.77;;;;;;;29.70;39.30;99009.94;5090053;28;20453;-58
2022/08/05 05:44:19;;;;;;;0.90;0.70;;;;;;;29.71;39.25;99010.72;5090049;28;20089;-58
2022/08/05 05:46:45;;;;;;;1.35;0.80;;;;;;;29.68;39.40;98998.31;5089885;28;20048;-59
2022/08/05 05:49:10;;;;;;;0.95;0.70;;;;;;;29.71;39.45;99010.72;5089941;28;20047;-59
2022/08/05 05:51:35;;;;;;;0.98;0.70;;;;;;;29.71;39.43;99007.91;5089650;28;20044;-58
2022/08/05 05:54:01;;;;;;;0.70;0.60;;;;;;;29.71;39.28;99016.34;5089726;28;20555;-58
2022/08/05 05:56:30;;;;;;;1.20;0.70;;;;;;;29.71;39.59;99010.72;5089725;28;20047;-58
2022/08/05 05:58:55;;;;;;;1.35;0.90;;;;;;;29.71;39.46;99017.16;5089616;28;20047;-59
2022/08/05 06:01:21;;;;;;;0.82;0.70;;;;;;;29.71;39.44;99016.34;5089548;28;20044;-58
2022/08/05 06:03:46;;;;;;;0.70;0.60;;;;;;;29.59;38.89;99010.25;5089757;28;20416;-58
2022/08/05 06:06:12;;;;;;;1.42;0.85;;;;;;;29.47;38.58;99013.75;5089943;28;20078;-58
2022/08/05 06:08:37;;;;;;;1.08;0.70;;;;;;;29.36;39.33;99007.59;5089563;28;20388;-57
2022/08/05 06:11:03;;;;;;;1.10;0.68;;;;;;;29.29;40.05;99007.78;5089466;28;20040;-59
2022/08/05 06:13:28;;;;;;;1.13;0.80;;;;;;;29.20;40.32;99005.63;5089540;28;20063;-59
2022/08/05 06:15:53;;;;;;;0.95;0.73;;;;;;;29.10;40.42;99011.53;5089308;28;20152;-58
2022/08/05 06:18:19;;;;;;;1.00;0.70;;;;;;;29.04;40.41;99020.50;5089443;28;20127;-58
2022/08/05 06:20:44;;;;;;;0.88;0.60;;;;;;;28.98;40.50;99010.22;5089043;28;20039;-59
2022/08/05 06:23:09;;;;;;;1.33;0.70;;;;;;;28.99;40.40;99011.78;5089218;28;20507;-58
2022/08/05 06:25:35;;;;;;;0.95;0.70;;;;;;;28.98;40.41;99011.00;5089215;28;20131;-58
2022/08/05 06:28:00;;;;;;;0.63;0.60;;;;;;;29.02;40.42;99011.72;5089126;28;20454;-59
2022/08/05 06:30:26;;;;;;;0.98;0.60;;;;;;;28.97;39.25;99009.44;5089302;28;20081;-58
2022/08/05 06:32:52;;;;;;;1.02;0.70;;;;;;;28.92;39.98;99007.13;5089095;28;20097;-58
2022/08/05 06:35:18;;;;;;;1.05;0.70;;;;;;;28.85;40.59;99012.91;5090436;28;20046;-58
2022/08/05 06:37:44;;;;;;;1.20;0.70;;;;;;;28.76;40.67;99010.72;5092822;28;20079;-58
2022/08/05 06:40:11;;;;;;;0.98;0.70;;;;;;;28.74;40.98;99015.22;5092632;28;20074;-57
2022/08/05 06:42:37;;;;;;;1.35;0.70;;;;;;;28.75;41.01;99014.75;5092720;28;20538;-57
2022/08/05 06:45:04;;;;;;;1.00;0.70;;;;;;;28.82;40.64;99010.19;5092738;28;20412;-59
2022/08/05 06:47:29;;;;;;;0.90;0.68;;;;;;;28.83;40.14;99014.59;5092694;28;20519;-59
2022/08/05 06:49:54;;;;;;;1.00;0.80;;;;;;;28.83;39.70;99011.78;5092599;28;20044;-58
2022/08/05 06:52:20;;;;;;;0.50;0.50;;;;;;;28.82;40.71;99013.81;5092855;28;20352;-59
2022/08/05 06:54:45;;;;;;;1.50;0.80;;;;;;;28.74;41.07;99016.00;5092610;28;20075;-58
2022/08/05 06:57:13;;;;;;;0.73;0.60;;;;;;;28.72;40.70;99017.66;5092523;28;20048;-58
2022/08/05 06:59:39;;;;;;;0.90;0.60;;;;;;;28.74;40.91;99018.03;5092328;28;20579;-58
2022/08/05 07:02:05;;;;;;;1.48;0.70;;;;;;;28.76;40.95;99021.97;5092490;28;20044;-58
2022/08/05 07:04:30;;;;;;;0.95;0.60;;;;;;;28.79;40.14;99023.09;5092604;28;20512;-58
2022/08/05 07:06:56;;;;;;;1.00;0.65;;;;;;;28.76;40.05;99018.38;5092354;28;20119;-58
2022/08/05 07:09:21;;;;;;;0.60;0.60;;;;;;;28.74;40.51;99013.19;5092184;28;20040;-58
2022/08/05 07:11:46;;;;;;;0.90;0.70;;;;;;;28.68;41.03;99009.31;5092397;28;20097;-58
2022/08/05 07:16:59;;;;;;;1.27;0.75;;;;;;;28.68;40.79;99014.94;5092708;28;20109;-58
2022/08/05 07:19:26;;;;;;;0.70;0.60;;;;;;;28.71;40.73;99016.06;5092026;28;20048;-57
2022/08/05 07:21:52;;;;;;;0.88;0.73;;;;;;;28.72;41.03;99014.84;5091986;28;20499;-59
2022/08/05 07:24:17;;;;;;;0.70;0.50;;;;;;;28.73;41.01;99016.44;5092257;28;20044;-58
2022/08/05 07:26:44;;;;;;;0.90;0.70;;;;;;;28.75;40.37;99019.59;5092063;28;20063;-58
2022/08/05 07:29:10;;;;;;;0.63;0.50;;;;;;;28.71;40.73;99018.88;5091969;28;20097;-58
2022/08/05 07:31:36;;;;;;;1.08;0.80;;;;;;;28.67;41.22;99021.00;5092044;28;20115;-57
2022/08/05 07:34:02;;;;;;;0.70;0.55;;;;;;;28.60;41.07;99013.53;5091885;28;20420;-57
2022/08/05 07:36:27;;;;;;;1.08;0.70;;;;;;;28.62;40.96;99016.69;5091997;28;20511;-58
2022/08/05 07:38:53;;;;;;;1.75;0.70;;;;;;;28.62;40.99;99016.69;5091680;28;20448;-58
2022/08/05 07:41:21;;;;;;;0.80;0.70;;;;;;;28.70;40.95;99020.13;5091912;28;20050;-58
2022/08/05 07:43:46;;;;;;;0.73;0.63;;;;;;;28.70;40.76;99012.47;5091847;28;20036;-58
2022/08/05 07:46:12;;;;;;;0.93;0.60;;;;;;;28.73;40.23;99011.59;5090971;28;20373;-58
2022/08/05 07:48:38;;;;;;;0.82;0.57;;;;;;;28.73;40.51;99022.06;5091646;28;20032;-58
2022/08/05 07:51:03;;;;;;;1.05;0.70;;;;;;;28.70;40.71;99017.31;5091629;28;20081;-58
2022/08/05 07:53:28;;;;;;;0.93;0.65;;;;;;;28.63;40.80;99018.25;5091507;28;20052;-58
2022/08/05 07:55:54;;;;;;;0.80;0.70;;;;;;;28.64;40.87;99019.06;5091481;28;20055;-58
2022/08/05 07:58:19;;;;;;;1.05;0.70;;;;;;;28.64;40.75;99014.22;5091498;28;20035;-57
2022/08/05 08:00:45;;;;;;;0.77;0.52;;;;;;;28.67;40.60;99012.56;5091480;28;20047;-58
2022/08/05 08:03:12;;;;;;;1.33;0.75;;;;;;;28.70;40.71;99014.50;5091609;28;20131;-58
2022/08/05 08:05:41;;;;;;;1.00;0.75;;;;;;;28.73;40.54;99010.81;5091501;28;20499;-59
2022/08/05 08:08:06;;;;;;;0.90;0.70;;;;;;;28.75;40.43;99011.94;5091355;28;20439;-58
2022/08/05 08:10:32;;;;;;;1.70;0.70;;;;;;;28.78;40.36;99011.06;5091339;28;20500;-58
2022/08/05 08:12:57;;;;;;;0.82;0.55;;;;;;;28.81;40.28;99005.81;5091463;28;20081;-58
2022/08/05 08:15:22;;;;;;;0.90;0.63;;;;;;;28.82;40.33;99001.75;5091438;28;20127;-58
2022/08/05 08:17:48;;;;;;;1.02;0.70;;;;;;;28.86;40.19;99002.44;5091249;28;20515;-58
2022/08/05 08:20:13;;;;;;;0.80;0.60;;;;;;;28.84;40.00;99002.09;5091143;28;20044;-58
2022/08/05 08:22:39;;;;;;;0.68;0.50;;;;;;;28.76;40.05;98995.84;5091111;28;20051;-58
2022/08/05 08:25:05;;;;;;;1.10;0.70;;;;;;;28.75;40.67;98997.88;5091167;28;20127;-58
2022/08/05 08:27:31;;;;;;;0.52;0.50;;;;;;;28.69;40.64;98996.03;5089040;28;20044;-58
2022/08/05 08:29:57;;;;;;;0.73;0.60;;;;;;;28.68;40.43;98997.25;5091056;28;20415;-57
2022/08/05 08:32:22;;;;;;;1.33;0.73;;;;;;;28.68;40.56;98997.25;5091202;28;20047;-58
2022/08/05 08:34:48;;;;;;;0.70;0.52;;;;;;;28.70;40.56;98994.78;5091125;28;20135;-58
2022/08/05 08:37:13;;;;;;;0.95;0.70;;;;;;;28.69;40.39;98988.38;5090933;28;20134;-58
2022/08/05 08:39:39;;;;;;;1.00;0.60;;;;;;;28.69;40.39;98985.56;5090859;28;20824;-58
2022/08/05 08:42:07;;;;;;;0.70;0.60;;;;;;;28.77;40.07;98989.78;5091032;28;20143;-58
2022/08/05 08:44:33;;;;;;;0.80;0.60;;;;;;;28.82;40.05;99001.75;5090910;28;20071;-58
2022/08/05 08:47:02;;;;;;;0.85;0.57;;;;;;;28.82;39.94;98996.91;5090898;28;20048;-58
2022/08/05 08:49:32;;;;;;;0.98;0.65;;;;;;;28.82;40.25;98996.13;5091094;28;20051;-58
2022/08/05 08:52:11;;;;;;;0.50;0.50;;;;;;;28.83;39.96;98990.03;5089062;28;20059;-58
2022/08/05 08:54:37;;;;;;;0.63;0.60;;;;;;;28.85;40.26;98989.59;5090720;28;20596;-58
2022/08/05 08:57:05;;;;;;;0.60;0.60;;;;;;;28.83;39.95;98992.84;5090773;28;20047;-58
2022/08/05 08:59:30;;;;;;;0.50;0.50;;;;;;;28.84;39.90;98993.66;5090320;28;20083;-58
2022/08/05 09:01:58;;;;;;;0.70;0.65;;;;;;;28.87;39.63;98992.78;5090466;28;20066;-58
2022/08/05 09:04:26;;;;;;;0.75;0.70;;;;;;;28.82;39.48;98990.50;5090611;28;20540;-59
2022/08/05 09:06:51;;;;;;;0.88;0.60;;;;;;;28.76;40.39;98990.22;5090652;28;20044;-58
2022/08/05 09:09:17;;;;;;;0.75;0.57;;;;;;;28.69;40.35;98984.78;5090642;28;20055;-58
2022/08/05 09:11:42;;;;;;;1.00;0.60;;;;;;;28.68;40.36;98986.00;5090375;28;20075;-59
2022/08/05 09:14:07;;;;;;;0.85;0.70;;;;;;;28.67;40.15;98985.22;5090480;28;20052;-58
2022/08/05 09:16:33;;;;;;;0.70;0.60;;;;;;;28.72;40.39;98978.25;5090415;28;20044;-59
2022/08/05 09:18:58;;;;;;;0.80;0.60;;;;;;;28.74;40.31;98984.25;5090370;28;20048;-58
2022/08/05 09:21:27;;;;;;;0.70;0.63;;;;;;;28.76;39.82;98981.78;5090308;28;20468;-58
2022/08/05 09:24:07;;;;;;;0.90;0.60;;;;;;;28.70;39.71;98980.72;5090446;28;20044;-59
2022/08/05 09:26:33;;;;;;;1.08;0.73;;;;;;;28.68;40.59;98980.38;5088841;28;20055;-58
2022/08/05 09:29:03;;;;;;;1.58;0.52;;;;;;;28.65;40.46;98978.44;5090083;28;20040;-59
2022/08/05 09:31:29;;;;;;;0.60;0.50;;;;;;;28.66;40.43;98975.19;5090048;28;20092;-58
2022/08/05 09:34:00;;;;;;;0.88;0.60;;;;;;;28.70;40.32;98978.69;5090169;28;20048;-58
2022/08/05 09:36:42;;;;;;;1.33;0.60;;;;;;;28.73;40.19;98977.03;5090334;28;20047;-59
2022/08/05 09:39:10;;;;;;;0.98;0.60;;;;;;;28.75;39.45;98971.75;5090115;28;20127;-58
2022/08/05 09:42:00;;;;;;;0.80;0.60;;;;;;;28.69;40.00;98967.88;5090155;28;20452;-58
2022/08/05 09:44:44;;;;;;;1.08;0.65;;;;;;;28.65;40.35;98964.38;5088179;28;20526;-58
2022/08/05 09:47:17;;;;;;;1.08;0.80;;;;;;;28.69;40.35;98965.06;5089960;28;20040;-58
2022/08/05 09:49:42;;;;;;;;;;;;;;;28.77;40.29;98969.28;5090334;28;20052;-58
2022/08/05 09:52:18;;;;;;;1.10;0.70;;;;;;;28.75;39.99;98964.09;5089964;28;19961;-58
2022/08/05 09:54:54;;;;;;;0.50;0.50;;;;;;;28.76;40.10;98954.41;5089948;28;20286;-59
2022/08/05 09:57:36;;;;;;;0.50;0.47;;;;;;;28.76;39.57;98953.63;5089956;28;20051;-57
2022/08/05 10:00:14;;;;;;;0.68;0.50;;;;;;;28.67;39.56;98945.03;5089768;28;20051;-58
2022/08/05 10:02:42;;;;;;;0.95;0.60;;;;;;;28.68;40.38;98932.53;5089754;28;20408;-58
2022/08/05 10:05:12;;;;;;;0.98;0.60;;;;;;;28.65;40.19;98941.88;5089669;28;20059;-58
2022/08/05 10:07:45;;;;;;;0.57;0.55;;;;;;;28.67;40.13;98936.59;5089508;28;20069;-58
2022/08/05 10:10:10;;;;;;;0.47;0.47;;;;;;;28.70;40.11;98930.84;5088780;28;20048;-58
2022/08/05 10:12:49;;;;;;;1.15;0.50;;;;;;;28.72;40.00;98927.59;5089554;28;20385;-57
2022/08/05 10:15:35;;;;;;;0.60;0.60;;;;;;;28.77;39.74;98939.09;5089694;28;20106;-58
2022/08/05 10:18:07;;;;;;;0.75;0.60;;;;;;;28.82;39.87;98929.34;5089292;28;20040;-59
2022/08/05 10:20:36;;;;;;;0.77;0.60;;;;;;;28.83;39.64;98925.31;5089140;28;20534;-58
2022/08/05 10:23:01;;;;;;;0.77;0.50;;;;;;;28.86;39.68;98930.03;5089466;28;20297;-58
2022/08/05 10:25:27;;;;;;;0.85;0.60;;;;;;;28.88;39.61;98933.22;5089311;28;20044;-58
2022/08/05 10:27:53;;;;;;;0.50;0.50;;;;;;;28.83;38.80;98919.66;5089544;28;20139;-59
2022/08/05 10:30:20;;;;;;;0.70;0.60;;;;;;;28.76;39.60;98917.81;5089251;28;20415;-58
2022/08/05 10:32:46;;;;;;;0.60;0.60;;;;;;;28.68;39.56;98913.63;5089428;28;20131;-58
2022/08/05 10:35:13;;;;;;;0.93;0.63;;;;;;;28.66;39.71;98904.84;5089361;28;20040;-58
2022/08/05 10:37:40;;;;;;;0.80;0.60;;;;;;;28.70;39.85;98907.53;5089206;28;20071;-58
2022/08/05 10:40:15;;;;;;;0.80;0.57;;;;;;;28.73;39.75;98903.84;5089027;28;20453;-57
2022/08/05 10:42:43;;;;;;;0.50;0.47;;;;;;;28.76;39.73;98894.53;5089202;28;20051;-58
2022/08/05 10:45:12;;;;;;;0.70;0.60;;;;;;;28.81;39.65;98901.66;5089161;28;20503;-57
2022/08/05 10:47:43;;;;;;;0.60;0.60;;;;;;;28.77;38.58;98896.09;5089085;28;20066;-57
2022/08/05 10:50:13;;;;;;;1.30;0.60;;;;;;;28.76;39.20;98892.50;5087023;28;20047;-59
2022/08/05 10:52:46;;;;;;;0.88;0.50;;;;;;;28.68;39.80;98891.09;5088940;28;20496;-58
2022/08/05 10:55:13;;;;;;;0.60;0.50;;;;;;;28.68;39.89;98885.47;5088869;28;20079;-59
2022/08/05 10:57:43;;;;;;;0.98;0.60;;;;;;;28.64;39.68;98884.75;5088794;28;20569;-59
2022/08/05 11:00:17;;;;;;;0.73;0.52;;;;;;;28.73;39.62;98881.34;5088768;28;20397;-59
2022/08/05 11:03:10;;;;;;;0.95;0.63;;;;;;;28.73;39.67;98875.72;5087048;28;20144;-57
2022/08/05 11:05:36;;;;;;;0.77;0.63;;;;;;;28.76;39.78;98869.97;5087045;28;20060;-59
2022/08/05 11:08:05;;;;;;;0.70;0.47;;;;;;;28.78;39.52;98872.34;5088947;28;20040;-59
2022/08/05 11:10:33;;;;;;;0.57;0.50;;;;;;;28.81;39.56;98865.84;5089039;28;20036;-59
2022/08/05 11:12:59;;;;;;;0.65;0.60;;;;;;;28.84;39.50;98858.53;5088776;28;20082;-59
2022/08/05 11:15:27;;;;;;;0.82;0.60;;;;;;;28.80;38.22;98864.28;5088811;28;20043;-58
2022/08/05 11:18:05;;;;;;;0.70;0.50;;;;;;;28.71;39.60;98845.19;5086946;28;20063;-57
2022/08/05 11:20:31;;;;;;;0.63;0.57;;;;;;;28.73;39.61;98854.00;5089095;28;20063;-59
2022/08/05 11:22:56;;;;;;;0.57;0.50;;;;;;;28.69;39.76;98849.69;5092212;28;20036;-57
2022/08/05 11:25:30;;;;;;;0.82;0.60;;;;;;;28.72;39.36;98846.78;5092263;28;20088;-57
2022/08/05 11:28:16;;;;;;;0.80;0.60;;;;;;;28.77;39.56;98842.63;5092298;28;20048;-57
2022/08/05 11:30:56;;;;;;;0.75;0.60;;;;;;;28.77;39.49;98837.78;5092080;28;20036;-58
2022/08/05 11:33:29;;;;;;;0.80;0.60;;;;;;;28.77;38.97;98832.16;5092109;28;20044;-58
2022/08/05 11:36:05;;;;;;;0.80;0.55;;;;;;;28.73;39.08;98830.69;5092149;28;20531;-57
2022/08/05 11:38:40;;;;;;;0.70;0.60;;;;;;;28.70;39.57;98826.72;5090399;28;20051;-57
2022/08/05 11:41:06;;;;;;;0.82;0.63;;;;;;;28.67;39.58;98821.19;5092023;28;20046;-58